createdAt,value
2023-03-12T00:02:21.986Z,88.90
2023-03-12T00:05:29.807Z,88.90
2023-03-12T00:08:37.812Z,89.22
2023-03-12T00:11:45.664Z,89.42
2023-03-12T00:14:53.376Z,89.78
2023-03-12T00:18:01.144Z,89.98
2023-03-12T00:21:08.766Z,90.20
2023-03-12T00:24:17.220Z,90.09
2023-03-12T00:27:25.366Z,90.51
2023-03-12T00:30:32.759Z,90.87
2023-03-12T00:33:40.824Z,90.97
2023-03-12T00:36:48.855Z,90.97
2023-03-12T00:39:56.388Z,91.28
2023-03-12T00:43:04.860Z,91.39
2023-03-12T00:46:13.081Z,91.39
2023-03-12T00:49:20.612Z,91.50
2023-03-12T00:52:29.032Z,91.50
2023-03-12T00:55:37.402Z,91.53
2023-03-12T00:58:44.973Z,91.85
2023-03-12T01:01:53.251Z,91.96
2023-03-12T01:05:01.323Z,91.85
2023-03-12T01:08:08.916Z,91.96
2023-03-12T01:11:16.957Z,92.06
2023-03-12T01:14:24.673Z,92.48
2023-03-12T01:17:32.596Z,92.94
2023-03-12T01:20:40.670Z,93.57
2023-03-12T01:23:48.527Z,94.04
2023-03-12T01:26:56.297Z,94.35
2023-03-12T01:30:04.261Z,94.77
2023-03-12T01:33:12.813Z,95.29
2023-03-12T01:36:20.973Z,95.54
2023-03-12T01:39:28.842Z,95.76
2023-03-12T01:42:37.160Z,95.86
2023-03-12T01:45:45.037Z,96.39
2023-03-12T01:48:52.959Z,96.70
2023-03-12T01:52:00.976Z,96.91
2023-03-12T01:55:12.546Z,97.06
2023-03-12T01:58:20.574Z,97.17
2023-03-12T02:01:27.714Z,97.27
2023-03-12T02:04:35.609Z,97.38
2023-03-12T02:07:42.789Z,97.48
2023-03-12T02:10:50.866Z,97.48
2023-03-12T02:13:58.686Z,97.58
2023-03-12T02:17:06.416Z,97.38
2023-03-12T02:20:13.986Z,97.38
2023-03-12T02:23:22.081Z,97.48
2023-03-12T02:26:29.402Z,97.48
2023-03-12T02:29:37.533Z,97.58
2023-03-12T02:32:44.900Z,97.48
2023-03-12T02:35:53.531Z,97.38
2023-03-12T02:39:01.352Z,97.48
2023-03-12T02:42:08.921Z,97.69
2023-03-12T02:45:16.520Z,97.80
2023-03-12T02:48:24.502Z,98.00
2023-03-12T02:51:31.545Z,98.05
2023-03-12T02:54:39.633Z,98.16
2023-03-12T02:57:46.746Z,98.36
2023-03-12T03:00:54.736Z,98.36
2023-03-12T03:04:02.416Z,98.47
2023-03-12T03:07:10.066Z,98.58
2023-03-12T03:10:17.679Z,98.68
2023-03-12T03:13:26.190Z,98.79
2023-03-12T03:16:33.373Z,98.94
2023-03-12T03:19:41.555Z,98.83
2023-03-12T03:22:48.849Z,98.83
2023-03-12T03:25:56.917Z,98.83
2023-03-12T03:29:04.519Z,98.83
2023-03-12T03:32:12.147Z,98.83
2023-03-12T03:35:19.726Z,98.83
2023-03-12T03:38:27.301Z,98.77
2023-03-12T03:41:34.873Z,98.77
2023-03-12T03:44:42.985Z,98.66
2023-03-12T03:47:50.366Z,98.66
2023-03-12T03:50:58.952Z,98.66
2023-03-12T03:54:06.634Z,98.77
2023-03-12T03:57:14.351Z,98.77
2023-03-12T04:00:22.214Z,98.66
2023-03-12T04:03:29.878Z,98.62
2023-03-12T04:06:37.269Z,98.62
2023-03-12T04:09:45.622Z,98.41
2023-03-12T04:12:52.826Z,97.94
2023-03-12T04:16:00.928Z,97.42
2023-03-12T04:19:08.228Z,96.79
2023-03-12T04:22:16.420Z,96.47
2023-03-12T04:25:24.247Z,96.37
2023-03-12T04:28:31.807Z,96.58
2023-03-12T04:31:39.562Z,96.58
2023-03-12T04:34:47.719Z,96.58
2023-03-12T04:37:55.029Z,96.58
2023-03-12T04:41:03.002Z,96.37
2023-03-12T04:44:12.680Z,96.69
2023-03-12T04:47:20.551Z,96.69
2023-03-12T04:50:28.236Z,96.79
2023-03-12T04:53:36.013Z,96.31
2023-03-12T04:56:43.600Z,96.41
2023-03-12T04:59:51.169Z,96.41
2023-03-12T05:02:58.862Z,96.41
2023-03-12T05:06:07.054Z,96.62
2023-03-12T05:09:14.191Z,96.83
2023-03-12T05:12:22.142Z,97.05
2023-03-12T05:15:29.373Z,97.30
2023-03-12T05:18:36.798Z,97.41
2023-03-12T05:21:44.323Z,97.61
2023-03-12T05:24:51.995Z,97.82
2023-03-12T05:27:59.373Z,97.93
2023-03-12T05:31:07.404Z,98.14
2023-03-12T05:34:14.482Z,98.30
2023-03-12T05:37:22.783Z,98.52
2023-03-12T05:40:30.570Z,98.62
2023-03-12T05:43:38.201Z,98.83
2023-03-12T05:46:45.842Z,98.89
2023-03-12T05:49:53.412Z,98.89
2023-03-12T05:53:01.055Z,99.00
2023-03-12T05:56:08.916Z,99.05
2023-03-12T05:59:16.087Z,99.16
2023-03-12T06:02:24.245Z,99.16
2023-03-12T06:05:32.150Z,99.11
2023-03-12T06:08:39.388Z,99.11
2023-03-12T06:11:46.949Z,98.75
2023-03-12T06:14:54.835Z,98.55
2023-03-12T06:18:02.098Z,97.98
2023-03-12T06:21:10.012Z,96.99
2023-03-12T06:24:18.003Z,95.62
2023-03-12T06:27:25.089Z,94.64
2023-03-12T06:30:33.069Z,93.97
2023-03-12T06:33:40.664Z,93.34
2023-03-12T06:36:47.836Z,92.57
2023-03-12T06:39:55.596Z,92.57
2023-03-12T06:43:02.979Z,92.04
2023-03-12T06:46:10.805Z,91.58
2023-03-12T06:49:18.709Z,91.58
2023-03-12T06:52:26.258Z,91.22
2023-03-12T06:55:33.909Z,91.02
2023-03-12T06:58:41.356Z,90.77
2023-03-12T07:01:49.558Z,90.45
2023-03-12T07:04:57.207Z,90.31
2023-03-12T07:08:04.773Z,90.31
2023-03-12T07:11:13.147Z,90.09
2023-03-12T07:14:20.649Z,90.52
2023-03-12T07:17:28.122Z,90.78
2023-03-12T07:20:35.953Z,90.37
2023-03-12T07:23:43.496Z,89.84
2023-03-12T07:26:50.851Z,89.74
2023-03-12T07:29:58.866Z,89.95
2023-03-12T07:33:06.240Z,88.87
2023-03-12T07:36:14.629Z,89.70
2023-03-12T07:39:22.612Z,88.76
2023-03-12T07:42:29.743Z,89.24
2023-03-12T07:45:37.496Z,88.82
2023-03-12T07:48:45.700Z,88.09
2023-03-12T07:51:52.891Z,88.26
2023-03-12T07:55:00.130Z,87.53
2023-03-12T07:58:07.897Z,87.53
2023-03-12T08:01:14.958Z,87.12
2023-03-12T08:04:23.183Z,87.22
2023-03-12T08:07:30.989Z,87.32
2023-03-12T08:10:38.952Z,86.87
2023-03-12T08:13:46.576Z,85.93
2023-03-12T08:16:54.030Z,86.03
2023-03-12T08:20:01.485Z,86.45
2023-03-12T08:23:01.646Z,85.68
2023-03-12T08:26:08.955Z,85.78
2023-03-12T08:29:16.265Z,85.85
2023-03-12T08:32:23.611Z,85.29
2023-03-12T08:35:33.841Z,85.29
2023-03-12T08:38:41.755Z,84.66
2023-03-12T08:41:49.461Z,83.20
2023-03-12T08:44:57.717Z,83.69
2023-03-12T08:48:05.530Z,84.00
2023-03-12T08:51:13.829Z,83.75
2023-03-12T08:54:13.459Z,83.34
2023-03-12T08:57:21.199Z,83.54
2023-03-12T09:00:28.340Z,82.71
2023-03-12T09:03:35.804Z,81.36
2023-03-12T09:06:43.333Z,82.46
2023-03-12T09:09:50.868Z,81.53
2023-03-12T09:12:58.781Z,80.56
2023-03-12T09:16:05.926Z,79.41
2023-03-12T09:19:13.057Z,79.83
2023-03-12T09:22:21.552Z,80.66
2023-03-12T09:25:29.174Z,80.46
2023-03-12T09:28:36.513Z,81.67
2023-03-12T09:31:44.110Z,79.90
2023-03-12T09:34:51.801Z,81.32
2023-03-12T09:37:59.219Z,81.38
2023-03-12T09:41:06.761Z,79.83
2023-03-12T09:44:14.040Z,81.38
2023-03-12T09:47:21.266Z,80.83
2023-03-12T09:50:28.673Z,79.58
2023-03-12T09:53:35.942Z,79.90
2023-03-12T09:56:42.973Z,79.69
2023-03-12T09:59:50.934Z,81.66
2023-03-12T10:02:58.310Z,80.93
2023-03-12T10:06:05.453Z,81.41
2023-03-12T10:09:13.776Z,81.20
2023-03-12T10:12:20.957Z,79.44
2023-03-12T10:15:28.578Z,79.85
2023-03-12T10:18:36.510Z,79.51
2023-03-12T10:21:43.652Z,79.82
2023-03-12T10:24:51.191Z,79.47
2023-03-12T10:27:58.864Z,79.16
2023-03-12T10:31:06.452Z,79.85
2023-03-12T10:34:13.561Z,77.67
2023-03-12T10:37:20.960Z,79.13
2023-03-12T10:40:28.285Z,77.36
2023-03-12T10:43:35.742Z,77.84
2023-03-12T10:46:43.131Z,77.84
2023-03-12T10:49:50.403Z,78.05
2023-03-12T10:52:57.643Z,77.36
2023-03-12T10:56:04.914Z,78.19
2023-03-12T10:59:12.770Z,78.30
2023-03-12T11:02:20.054Z,78.81
2023-03-12T11:05:28.050Z,79.30
2023-03-12T11:08:35.621Z,78.67
2023-03-12T11:11:42.548Z,79.26
2023-03-12T11:14:50.270Z,80.19
2023-03-12T11:17:57.882Z,77.91
2023-03-12T11:21:05.247Z,78.64
2023-03-12T11:24:12.925Z,78.05
2023-03-12T11:27:19.928Z,78.61
2023-03-12T11:30:27.668Z,79.13
2023-03-12T11:33:35.300Z,76.57
2023-03-12T11:36:42.269Z,77.23
2023-03-12T11:39:49.599Z,77.64
2023-03-12T11:42:57.051Z,78.58
2023-03-12T11:46:04.054Z,79.30
2023-03-12T11:49:11.790Z,79.10
2023-03-12T11:52:19.175Z,79.06
2023-03-12T11:55:27.087Z,78.85
2023-03-12T11:58:34.596Z,78.44
2023-03-12T12:01:42.049Z,78.54
2023-03-12T12:04:49.599Z,78.85
2023-03-12T12:07:56.800Z,79.99
2023-03-12T12:11:04.507Z,79.68
2023-03-12T12:14:12.103Z,80.51
2023-03-12T12:17:19.619Z,81.58
2023-03-12T12:20:27.007Z,81.58
2023-03-12T12:23:34.090Z,82.10
2023-03-12T12:26:41.979Z,82.20
2023-03-12T12:29:49.411Z,82.34
2023-03-12T12:32:56.814Z,82.65
2023-03-12T12:36:04.558Z,82.55
2023-03-12T12:39:12.052Z,83.17
2023-03-12T12:42:19.503Z,83.14
2023-03-12T12:45:27.362Z,82.93
2023-03-12T12:48:35.713Z,83.03
2023-03-12T12:51:43.186Z,82.82
2023-03-12T12:54:51.165Z,82.62
2023-03-12T12:57:58.938Z,82.93
2023-03-12T13:01:06.698Z,82.93
2023-03-12T13:04:13.802Z,83.86
2023-03-12T13:07:21.545Z,83.14
2023-03-12T13:10:29.281Z,83.14
2023-03-12T13:13:36.341Z,83.55
2023-03-12T13:16:44.125Z,84.48
2023-03-12T13:20:00.926Z,85.00
2023-03-12T13:22:56.082Z,85.35
2023-03-12T13:26:04.006Z,86.18
2023-03-12T13:29:12.931Z,86.70
2023-03-12T13:32:20.440Z,87.43
2023-03-12T13:35:28.097Z,88.15
2023-03-12T13:38:35.451Z,89.09
2023-03-12T13:41:42.655Z,89.44
2023-03-12T13:44:50.122Z,89.86
2023-03-12T13:47:57.958Z,90.06
2023-03-12T13:51:05.340Z,90.27
2023-03-12T13:54:12.825Z,90.17
2023-03-12T13:57:20.557Z,90.58
2023-03-12T14:00:27.878Z,91.31
2023-03-12T14:03:35.438Z,91.41
2023-03-12T14:06:43.231Z,91.62
2023-03-12T14:09:50.872Z,91.41
2023-03-12T14:12:58.351Z,91.37
2023-03-12T14:16:05.893Z,91.68
2023-03-12T14:19:13.185Z,92.20
2023-03-12T14:22:20.930Z,92.72
2023-03-12T14:25:28.712Z,92.61
2023-03-12T14:28:35.833Z,92.72
2023-03-12T14:31:43.541Z,92.93
2023-03-12T14:34:51.005Z,93.02
2023-03-12T14:37:58.715Z,93.33
2023-03-12T14:41:06.762Z,93.23
2023-03-12T14:44:14.290Z,93.33
2023-03-12T14:47:21.831Z,93.44
2023-03-12T14:50:29.295Z,93.44
2023-03-12T14:53:36.831Z,93.60
2023-03-12T14:56:44.505Z,93.50
2023-03-12T14:59:52.057Z,94.02
2023-03-12T15:02:59.857Z,94.43
2023-03-12T15:06:07.057Z,94.85
2023-03-12T15:09:14.667Z,95.16
2023-03-12T15:12:23.284Z,95.68
2023-03-12T15:15:31.086Z,95.99
2023-03-12T15:18:38.990Z,96.61
2023-03-12T15:21:46.988Z,97.34
2023-03-12T15:24:54.150Z,97.96
2023-03-12T15:28:01.872Z,98.48
2023-03-12T15:31:10.069Z,98.90
2023-03-12T15:34:17.242Z,99.46
2023-03-12T15:37:25.331Z,99.98
2023-03-12T15:40:32.773Z,99.99
2023-03-12T15:43:40.093Z,99.99
2023-03-12T15:46:48.640Z,99.99
2023-03-12T15:49:56.036Z,99.99
2023-03-12T15:53:03.408Z,99.99
2023-03-12T15:56:10.564Z,99.99
2023-03-12T15:59:18.231Z,99.99
2023-03-12T16:02:26.008Z,99.99
2023-03-12T16:05:33.257Z,99.99
2023-03-12T16:08:40.961Z,99.99
2023-03-12T16:11:48.397Z,99.99
2023-03-12T16:14:55.979Z,99.99
2023-03-12T16:18:03.923Z,99.99
2023-03-12T16:21:11.099Z,99.99
2023-03-12T16:24:19.396Z,99.99
2023-03-12T16:27:32.531Z,99.99
2023-03-12T16:30:29.509Z,99.99
2023-03-12T16:33:37.368Z,99.99
2023-03-12T16:36:44.773Z,99.99
2023-03-12T16:39:52.602Z,99.99
2023-03-12T16:43:00.228Z,99.99
2023-03-12T16:46:07.807Z,99.99
2023-03-12T16:49:15.761Z,99.99
2023-03-12T16:52:23.222Z,99.99
2023-03-12T16:55:30.580Z,99.99
2023-03-12T16:58:38.471Z,99.99
2023-03-12T17:01:45.591Z,99.99
2023-03-12T17:04:53.048Z,99.99
2023-03-12T17:08:00.656Z,99.99
2023-03-12T17:11:07.822Z,99.99
2023-03-12T17:14:15.510Z,99.99
2023-03-12T17:17:23.498Z,99.99
2023-03-12T17:20:30.583Z,99.99
2023-03-12T17:23:38.762Z,99.99
2023-03-12T17:26:46.409Z,99.99
2023-03-12T17:29:54.399Z,99.99
2023-03-12T17:33:01.989Z,99.99
2023-03-12T17:36:09.876Z,99.99
2023-03-12T17:39:17.566Z,99.99
2023-03-12T17:42:25.626Z,99.99
2023-03-12T17:45:33.590Z,99.99
2023-03-12T17:48:41.373Z,99.99
2023-03-12T17:51:48.978Z,99.99
2023-03-12T17:54:56.573Z,99.99
2023-03-12T17:58:04.165Z,99.99
2023-03-12T18:01:13.474Z,99.99
2023-03-12T18:04:21.543Z,99.99
2023-03-12T18:07:29.222Z,99.99
2023-03-12T18:10:36.295Z,99.99
2023-03-12T18:13:44.284Z,99.99
2023-03-12T18:16:51.511Z,99.99
2023-03-12T18:19:59.523Z,99.99
2023-03-12T18:23:07.434Z,99.99
2023-03-12T18:26:14.451Z,99.99
2023-03-12T18:29:22.591Z,99.99
2023-03-12T18:32:30.142Z,99.99
2023-03-12T18:35:37.583Z,99.99
2023-03-12T18:38:45.420Z,99.99
2023-03-12T18:41:52.577Z,99.99
2023-03-12T18:45:00.430Z,99.99
2023-03-12T18:48:08.128Z,99.99
2023-03-12T18:51:16.204Z,99.99
2023-03-12T18:54:24.674Z,99.99
2023-03-12T18:57:32.416Z,99.99
2023-03-12T19:00:40.365Z,99.99
2023-03-12T19:03:47.660Z,99.99
2023-03-12T19:06:55.994Z,99.99
2023-03-12T19:10:03.476Z,99.99
2023-03-12T19:13:10.706Z,99.99
2023-03-12T19:16:18.435Z,99.99
2023-03-12T19:19:26.157Z,99.99
2023-03-12T19:22:33.878Z,99.99
2023-03-12T19:25:41.829Z,99.99
2023-03-12T19:28:49.362Z,99.99
2023-03-12T19:31:57.280Z,99.99
2023-03-12T19:35:04.830Z,99.99
2023-03-12T19:38:12.560Z,99.99
2023-03-12T19:41:20.165Z,99.99
2023-03-12T19:44:27.800Z,99.99
2023-03-12T19:47:35.686Z,99.99
2023-03-12T19:50:43.416Z,99.99
2023-03-12T19:53:50.714Z,99.99
2023-03-12T19:56:58.532Z,99.99
2023-03-12T20:00:05.753Z,99.99
2023-03-12T20:03:13.636Z,99.99
2023-03-12T20:06:21.341Z,99.99
2023-03-12T20:09:28.693Z,99.99
2023-03-12T20:12:36.752Z,99.99
2023-03-12T20:15:44.092Z,99.99
2023-03-12T20:18:52.149Z,99.99
2023-03-12T20:22:00.233Z,99.99
2023-03-12T20:25:07.606Z,99.99
2023-03-12T20:28:15.835Z,99.99
2023-03-12T20:31:23.428Z,99.99
2023-03-12T20:34:30.951Z,99.99
2023-03-12T20:37:38.832Z,99.99
2023-03-12T20:40:46.061Z,99.99
2023-03-12T20:43:53.699Z,99.99
2023-03-12T20:47:01.534Z,99.99
2023-03-12T20:50:09.109Z,99.99
2023-03-12T20:53:16.693Z,99.99
2023-03-12T20:56:24.185Z,99.99
2023-03-12T20:59:31.966Z,99.99
2023-03-12T21:02:39.381Z,99.99
2023-03-12T21:05:46.566Z,99.99
2023-03-12T21:08:55.074Z,99.99
2023-03-12T21:12:04.379Z,99.99
2023-03-12T21:15:12.673Z,99.99
2023-03-12T21:18:20.649Z,99.99
2023-03-12T21:21:27.907Z,99.99
2023-03-12T21:24:35.862Z,99.99
2023-03-12T21:27:50.551Z,99.99
2023-03-12T21:30:47.363Z,99.99
2023-03-12T21:33:55.053Z,99.99
2023-03-12T21:37:03.215Z,99.82
2023-03-12T21:40:10.435Z,99.62
2023-03-12T21:43:18.416Z,99.31
2023-03-12T21:46:25.845Z,98.96
2023-03-12T21:49:33.112Z,98.75
2023-03-12T21:52:43.353Z,98.44
2023-03-12T21:55:50.782Z,98.13
2023-03-12T21:58:58.418Z,97.92
2023-03-12T22:02:05.706Z,97.72
2023-03-12T22:05:13.051Z,97.26
2023-03-12T22:08:20.814Z,97.05
2023-03-12T22:11:28.223Z,96.84
2023-03-12T22:14:35.883Z,96.64
2023-03-12T22:17:43.364Z,96.48
2023-03-12T22:20:50.556Z,96.48
2023-03-12T22:23:58.336Z,96.48
2023-03-12T22:27:05.797Z,96.48
2023-03-12T22:30:13.339Z,96.58
2023-03-12T22:33:21.023Z,96.48
2023-03-12T22:36:28.139Z,96.48
2023-03-12T22:39:35.597Z,96.48
2023-03-12T22:42:43.568Z,96.37
2023-03-12T22:45:50.628Z,96.02
2023-03-12T22:48:58.433Z,95.92
2023-03-12T22:52:06.068Z,95.50
2023-03-12T22:55:13.638Z,95.15
2023-03-12T22:58:21.361Z,94.74
2023-03-12T23:01:28.889Z,94.64
2023-03-12T23:04:36.453Z,94.64
2023-03-12T23:07:44.378Z,94.78
2023-03-12T23:10:51.743Z,94.99
2023-03-12T23:13:59.129Z,95.09
2023-03-12T23:17:06.990Z,94.99
2023-03-12T23:20:14.552Z,95.09
2023-03-12T23:23:22.096Z,95.24
2023-03-12T23:26:29.681Z,95.45
2023-03-12T23:29:37.507Z,95.76
2023-03-12T23:32:44.841Z,95.96
2023-03-12T23:35:52.537Z,96.06
2023-03-12T23:39:00.506Z,96.06
2023-03-12T23:42:08.021Z,96.17
2023-03-12T23:45:15.607Z,96.23
2023-03-12T23:48:23.443Z,96.12
2023-03-12T23:51:30.878Z,95.92
2023-03-12T23:54:38.506Z,95.56
2023-03-12T23:57:46.350Z,95.36
